sensor_id;sensor_type;location;lat;lon;timestamp;pressure;altitude;pressure_sealevel;temperature;humidity
46714;BME280;32445;51.376;10.874;2023-07-31T00:01:47;99025.97;;;20.65;44.22
46714;BME280;32445;51.376;10.874;2023-07-31T00:04:47;99033.38;;;20.60;44.52
46714;BME280;32445;51.376;10.874;2023-07-31T00:07:49;99040.69;;;20.56;44.73
46714;BME280;32445;51.376;10.874;2023-07-31T00:10:51;99047.03;;;20.54;45.32
46714;BME280;32445;51.376;10.874;2023-07-31T00:13:53;99043.69;;;20.52;46.18
46714;BME280;32445;51.376;10.874;2023-07-31T00:16:55;99036.72;;;20.51;46.45
46714;BME280;32445;51.376;10.874;2023-07-31T00:19:55;99034.19;;;20.49;46.39
46714;BME280;32445;51.376;10.874;2023-07-31T00:22:56;99023.66;;;20.49;46.43
46714;BME280;32445;51.376;10.874;2023-07-31T00:25:56;99021.72;;;20.51;46.53
46714;BME280;32445;51.376;10.874;2023-07-31T00:28:56;99012.03;;;20.52;46.50
46714;BME280;32445;51.376;10.874;2023-07-31T00:31:57;99012.34;;;20.47;47.12
46714;BME280;32445;51.376;10.874;2023-07-31T00:34:57;99009.25;;;20.42;47.12
46714;BME280;32445;51.376;10.874;2023-07-31T00:37:58;99004.66;;;20.33;47.57
46714;BME280;32445;51.376;10.874;2023-07-31T00:40:58;99001.03;;;20.22;48.13
46714;BME280;32445;51.376;10.874;2023-07-31T00:43:59;98999.78;;;20.15;48.01
46714;BME280;32445;51.376;10.874;2023-07-31T00:46:59;99000.63;;;20.16;48.06
46714;BME280;32445;51.376;10.874;2023-07-31T00:50:00;99010.34;;;20.15;48.58
46714;BME280;32445;51.376;10.874;2023-07-31T00:53:00;98995.94;;;20.08;49.07
46714;BME280;32445;51.376;10.874;2023-07-31T00:56:01;98994.47;;;20.04;49.67
46714;BME280;32445;51.376;10.874;2023-07-31T00:59:01;98991.00;;;20.03;49.56
46714;BME280;32445;51.376;10.874;2023-07-31T01:02:02;98990.25;;;20.01;50.20
46714;BME280;32445;51.376;10.874;2023-07-31T01:05:03;98993.88;;;20.00;50.02
46714;BME280;32445;51.376;10.874;2023-07-31T01:08:12;98988.72;;;19.99;50.54
46714;BME280;32445;51.376;10.874;2023-07-31T01:11:19;98986.28;;;19.96;50.51
46714;BME280;32445;51.376;10.874;2023-07-31T01:14:22;98976.72;;;19.95;50.50
46714;BME280;32445;51.376;10.874;2023-07-31T01:17:22;98972.88;;;19.87;50.73
46714;BME280;32445;51.376;10.874;2023-07-31T01:20:24;98965.19;;;19.84;50.75
46714;BME280;32445;51.376;10.874;2023-07-31T01:26:52;98965.50;;;19.80;51.27
46714;BME280;32445;51.376;10.874;2023-07-31T01:30:00;98956.97;;;19.76;51.30
46714;BME280;32445;51.376;10.874;2023-07-31T01:33:04;98952.25;;;19.68;51.11
46714;BME280;32445;51.376;10.874;2023-07-31T01:36:07;98950.28;;;19.59;51.63
46714;BME280;32445;51.376;10.874;2023-07-31T01:39:08;98935.44;;;19.58;51.52
46714;BME280;32445;51.376;10.874;2023-07-31T01:42:08;98929.94;;;19.61;51.26
46714;BME280;32445;51.376;10.874;2023-07-31T01:45:09;98936.06;;;19.62;51.22
46714;BME280;32445;51.376;10.874;2023-07-31T01:48:09;98922.81;;;19.63;51.03
46714;BME280;32445;51.376;10.874;2023-07-31T01:51:10;98924.38;;;19.66;50.77
46714;BME280;32445;51.376;10.874;2023-07-31T01:54:10;98920.06;;;19.65;51.09
46714;BME280;32445;51.376;10.874;2023-07-31T01:57:11;98912.28;;;19.63;50.70
46714;BME280;32445;51.376;10.874;2023-07-31T02:00:11;98899.44;;;19.59;50.86
46714;BME280;32445;51.376;10.874;2023-07-31T02:03:12;98906.59;;;19.57;50.92
46714;BME280;32445;51.376;10.874;2023-07-31T02:06:12;98902.16;;;19.57;50.80
46714;BME280;32445;51.376;10.874;2023-07-31T02:09:12;98894.63;;;19.52;51.05
46714;BME280;32445;51.376;10.874;2023-07-31T02:12:13;98904.66;;;19.47;51.21
46714;BME280;32445;51.376;10.874;2023-07-31T02:15:14;98896.00;;;19.45;51.17
46714;BME280;32445;51.376;10.874;2023-07-31T02:18:14;98902.25;;;19.44;51.28
46714;BME280;32445;51.376;10.874;2023-07-31T02:21:15;98905.06;;;19.41;51.57
46714;BME280;32445;51.376;10.874;2023-07-31T02:24:15;98895.28;;;19.43;51.44
46714;BME280;32445;51.376;10.874;2023-07-31T02:27:15;98893.59;;;19.42;51.17
46714;BME280;32445;51.376;10.874;2023-07-31T02:30:16;98893.00;;;19.39;51.48
46714;BME280;32445;51.376;10.874;2023-07-31T02:33:16;98894.56;;;19.41;51.11
46714;BME280;32445;51.376;10.874;2023-07-31T02:36:16;98879.50;;;19.43;51.25
46714;BME280;32445;51.376;10.874;2023-07-31T02:39:17;98885.94;;;19.39;51.44
46714;BME280;32445;51.376;10.874;2023-07-31T02:42:17;98874.78;;;19.35;51.58
46714;BME280;32445;51.376;10.874;2023-07-31T02:45:17;98885.66;;;19.31;51.39
46714;BME280;32445;51.376;10.874;2023-07-31T02:48:18;98889.75;;;19.35;51.03
46714;BME280;32445;51.376;10.874;2023-07-31T02:51:19;98879.56;;;19.30;51.57
46714;BME280;32445;51.376;10.874;2023-07-31T02:54:21;98892.72;;;19.30;51.42
46714;BME280;32445;51.376;10.874;2023-07-31T02:57:21;98882.72;;;19.23;51.73
46714;BME280;32445;51.376;10.874;2023-07-31T03:00:22;98884.00;;;19.17;51.89
46714;BME280;32445;51.376;10.874;2023-07-31T03:03:22;98871.94;;;19.14;51.96
46714;BME280;32445;51.376;10.874;2023-07-31T03:06:23;98872.97;;;19.12;52.08
46714;BME280;32445;51.376;10.874;2023-07-31T03:09:23;98875.28;;;19.16;52.03
46714;BME280;32445;51.376;10.874;2023-07-31T03:12:23;98864.63;;;19.18;51.86
46714;BME280;32445;51.376;10.874;2023-07-31T03:15:24;98870.00;;;19.16;51.90
46714;BME280;32445;51.376;10.874;2023-07-31T03:18:24;98857.09;;;19.13;51.70
46714;BME280;32445;51.376;10.874;2023-07-31T03:21:24;98854.47;;;19.13;52.16
46714;BME280;32445;51.376;10.874;2023-07-31T03:24:25;98858.03;;;19.12;52.58
46714;BME280;32445;51.376;10.874;2023-07-31T03:27:26;98846.44;;;19.15;52.49
46714;BME280;32445;51.376;10.874;2023-07-31T03:30:26;98852.34;;;19.18;52.06
46714;BME280;32445;51.376;10.874;2023-07-31T03:33:27;98849.09;;;19.15;52.49
46714;BME280;32445;51.376;10.874;2023-07-31T03:36:27;98846.91;;;19.09;52.67
46714;BME280;32445;51.376;10.874;2023-07-31T03:39:28;98839.84;;;19.09;52.68
46714;BME280;32445;51.376;10.874;2023-07-31T03:42:28;98840.06;;;19.06;52.56
46714;BME280;32445;51.376;10.874;2023-07-31T03:45:28;98848.41;;;19.00;52.86
46714;BME280;32445;51.376;10.874;2023-07-31T03:48:29;98858.50;;;18.93;53.08
46714;BME280;32445;51.376;10.874;2023-07-31T03:51:29;98849.16;;;18.89;53.29
46714;BME280;32445;51.376;10.874;2023-07-31T03:54:29;98861.59;;;18.87;53.44
46714;BME280;32445;51.376;10.874;2023-07-31T03:57:30;98838.31;;;18.81;53.40
46714;BME280;32445;51.376;10.874;2023-07-31T04:00:32;98849.69;;;18.81;54.25
46714;BME280;32445;51.376;10.874;2023-07-31T04:03:32;98858.09;;;18.74;54.30
46714;BME280;32445;51.376;10.874;2023-07-31T04:06:33;98844.34;;;18.70;54.45
46714;BME280;32445;51.376;10.874;2023-07-31T04:09:33;98853.28;;;18.67;54.83
46714;BME280;32445;51.376;10.874;2023-07-31T04:12:33;98859.38;;;18.68;54.73
46714;BME280;32445;51.376;10.874;2023-07-31T04:15:34;98844.34;;;18.70;54.81
46714;BME280;32445;51.376;10.874;2023-07-31T04:18:34;98850.31;;;18.72;55.10
46714;BME280;32445;51.376;10.874;2023-07-31T04:21:34;98843.47;;;18.70;54.84
46714;BME280;32445;51.376;10.874;2023-07-31T04:24:35;98843.59;;;18.68;55.02
46714;BME280;32445;51.376;10.874;2023-07-31T04:27:35;98846.22;;;18.68;54.90
46714;BME280;32445;51.376;10.874;2023-07-31T04:30:35;98855.78;;;18.69;54.94
46714;BME280;32445;51.376;10.874;2023-07-31T04:33:36;98848.63;;;18.71;54.99
46714;BME280;32445;51.376;10.874;2023-07-31T04:36:36;98850.22;;;18.74;54.77
46714;BME280;32445;51.376;10.874;2023-07-31T04:39:37;98851.19;;;18.73;54.54
46714;BME280;32445;51.376;10.874;2023-07-31T04:42:37;98841.50;;;18.73;54.88
46714;BME280;32445;51.376;10.874;2023-07-31T04:45:37;98856.31;;;18.74;54.81
46714;BME280;32445;51.376;10.874;2023-07-31T04:48:38;98854.63;;;18.73;54.84
46714;BME280;32445;51.376;10.874;2023-07-31T04:51:38;98841.38;;;18.75;54.72
46714;BME280;32445;51.376;10.874;2023-07-31T04:54:38;98851.06;;;18.74;55.16
46714;BME280;32445;51.376;10.874;2023-07-31T04:57:39;98837.81;;;18.76;55.28
46714;BME280;32445;51.376;10.874;2023-07-31T05:00:39;98849.16;;;18.76;55.33
46714;BME280;32445;51.376;10.874;2023-07-31T05:03:39;98852.00;;;18.73;55.39
46714;BME280;32445;51.376;10.874;2023-07-31T05:06:40;98857.03;;;18.76;55.13
46714;BME280;32445;51.376;10.874;2023-07-31T05:09:41;98852.72;;;18.75;55.55
46714;BME280;32445;51.376;10.874;2023-07-31T05:12:41;98848.31;;;18.76;55.43
46714;BME280;32445;51.376;10.874;2023-07-31T05:15:41;98847.16;;;18.80;54.99
46714;BME280;32445;51.376;10.874;2023-07-31T05:18:42;98843.44;;;18.82;55.00
46714;BME280;32445;51.376;10.874;2023-07-31T05:21:42;98850.22;;;18.87;55.16
46714;BME280;32445;51.376;10.874;2023-07-31T05:24:42;98844.72;;;18.90;55.04
46714;BME280;32445;51.376;10.874;2023-07-31T05:27:43;98837.47;;;18.93;55.00
46714;BME280;32445;51.376;10.874;2023-07-31T05:30:43;98837.03;;;18.99;54.97
46714;BME280;32445;51.376;10.874;2023-07-31T05:33:43;98843.63;;;19.05;54.79
46714;BME280;32445;51.376;10.874;2023-07-31T05:36:44;98850.13;;;19.12;54.61
46714;BME280;32445;51.376;10.874;2023-07-31T05:39:44;98857.81;;;19.15;54.42
46714;BME280;32445;51.376;10.874;2023-07-31T05:42:45;98855.81;;;19.19;54.60
46714;BME280;32445;51.376;10.874;2023-07-31T05:45:45;98859.78;;;19.25;54.25
46714;BME280;32445;51.376;10.874;2023-07-31T05:48:45;98858.63;;;19.29;54.23
46714;BME280;32445;51.376;10.874;2023-07-31T05:51:45;98872.59;;;19.29;54.04
46714;BME280;32445;51.376;10.874;2023-07-31T05:54:46;98872.09;;;19.24;54.11
46714;BME280;32445;51.376;10.874;2023-07-31T05:57:46;98873.06;;;19.23;54.09
46714;BME280;32445;51.376;10.874;2023-07-31T06:00:47;98851.38;;;19.19;54.39
46714;BME280;32445;51.376;10.874;2023-07-31T06:03:47;98862.41;;;19.25;54.66
46714;BME280;32445;51.376;10.874;2023-07-31T06:06:48;98866.00;;;19.24;54.49
46714;BME280;32445;51.376;10.874;2023-07-31T06:09:48;98860.50;;;19.27;54.35
46714;BME280;32445;51.376;10.874;2023-07-31T06:12:49;98865.47;;;19.31;54.10
46714;BME280;32445;51.376;10.874;2023-07-31T06:15:49;98872.91;;;19.38;53.96
46714;BME280;32445;51.376;10.874;2023-07-31T06:18:51;98868.97;;;19.43;54.00
46714;BME280;32445;51.376;10.874;2023-07-31T06:21:51;98866.22;;;19.45;54.02
46714;BME280;32445;51.376;10.874;2023-07-31T06:24:52;98860.22;;;19.43;54.16
46714;BME280;32445;51.376;10.874;2023-07-31T06:27:52;98852.44;;;19.41;54.07
46714;BME280;32445;51.376;10.874;2023-07-31T06:30:52;98854.00;;;19.44;54.20
46714;BME280;32445;51.376;10.874;2023-07-31T06:33:54;98855.69;;;19.45;54.15
46714;BME280;32445;51.376;10.874;2023-07-31T06:36:56;98859.69;;;19.50;54.27
46714;BME280;32445;51.376;10.874;2023-07-31T06:39:56;98858.38;;;19.56;53.92
46714;BME280;32445;51.376;10.874;2023-07-31T06:42:56;98859.84;;;19.60;53.70
46714;BME280;32445;51.376;10.874;2023-07-31T06:45:57;98851.59;;;19.65;53.64
46714;BME280;32445;51.376;10.874;2023-07-31T06:48:57;98852.19;;;19.68;53.58
46714;BME280;32445;51.376;10.874;2023-07-31T06:51:58;98851.38;;;19.68;53.63
46714;BME280;32445;51.376;10.874;2023-07-31T06:55:03;98856.06;;;19.76;53.70
46714;BME280;32445;51.376;10.874;2023-07-31T06:58:04;98852.28;;;19.80;53.68
46714;BME280;32445;51.376;10.874;2023-07-31T07:01:04;98849.19;;;19.86;54.02
46714;BME280;32445;51.376;10.874;2023-07-31T07:04:04;98855.28;;;19.86;53.73
46714;BME280;32445;51.376;10.874;2023-07-31T07:07:05;98849.19;;;19.86;53.89
46714;BME280;32445;51.376;10.874;2023-07-31T07:10:06;98852.44;;;19.90;53.90
46714;BME280;32445;51.376;10.874;2023-07-31T07:13:07;98862.50;;;19.96;54.00
46714;BME280;32445;51.376;10.874;2023-07-31T07:16:07;98857.97;;;19.98;53.80
46714;BME280;32445;51.376;10.874;2023-07-31T07:19:08;98853.63;;;19.97;53.79
46714;BME280;32445;51.376;10.874;2023-07-31T07:22:09;98858.09;;;19.96;53.85
46714;BME280;32445;51.376;10.874;2023-07-31T07:25:10;98864.56;;;20.03;53.67
46714;BME280;32445;51.376;10.874;2023-07-31T07:28:10;98866.25;;;20.04;53.52
46714;BME280;32445;51.376;10.874;2023-07-31T07:31:11;98852.72;;;20.09;53.42
46714;BME280;32445;51.376;10.874;2023-07-31T07:34:11;98862.06;;;20.13;53.24
46714;BME280;32445;51.376;10.874;2023-07-31T07:37:11;98858.59;;;20.13;53.45
46714;BME280;32445;51.376;10.874;2023-07-31T07:40:12;98864.47;;;20.16;53.30
46714;BME280;32445;51.376;10.874;2023-07-31T07:43:12;98871.75;;;20.13;53.43
46714;BME280;32445;51.376;10.874;2023-07-31T07:46:12;98871.53;;;20.04;53.94
46714;BME280;32445;51.376;10.874;2023-07-31T07:49:13;98874.16;;;20.04;54.26
46714;BME280;32445;51.376;10.874;2023-07-31T07:52:13;98878.22;;;20.09;53.86
46714;BME280;32445;51.376;10.874;2023-07-31T07:55:13;98877.38;;;20.08;54.29
46714;BME280;32445;51.376;10.874;2023-07-31T07:58:14;98867.59;;;20.10;54.17
46714;BME280;32445;51.376;10.874;2023-07-31T08:01:14;98868.28;;;20.12;54.40
46714;BME280;32445;51.376;10.874;2023-07-31T08:04:14;98867.09;;;20.16;54.46
46714;BME280;32445;51.376;10.874;2023-07-31T08:07:15;98864.13;;;20.21;54.57
46714;BME280;32445;51.376;10.874;2023-07-31T08:10:16;98859.47;;;20.25;54.57
46714;BME280;32445;51.376;10.874;2023-07-31T08:13:16;98860.88;;;20.29;54.15
46714;BME280;32445;51.376;10.874;2023-07-31T08:16:16;98862.56;;;20.30;54.33
46714;BME280;32445;51.376;10.874;2023-07-31T08:19:17;98862.56;;;20.30;54.26
46714;BME280;32445;51.376;10.874;2023-07-31T08:22:17;98861.25;;;20.24;54.64
46714;BME280;32445;51.376;10.874;2023-07-31T08:25:17;98857.91;;;20.22;54.50
46714;BME280;32445;51.376;10.874;2023-07-31T08:28:18;98859.47;;;20.25;54.27
46714;BME280;32445;51.376;10.874;2023-07-31T08:31:18;98854.78;;;20.28;54.43
46714;BME280;32445;51.376;10.874;2023-07-31T08:34:19;98844.00;;;20.31;54.66
46714;BME280;32445;51.376;10.874;2023-07-31T08:37:19;98851.22;;;20.40;54.36
46714;BME280;32445;51.376;10.874;2023-07-31T08:40:20;98836.22;;;20.52;54.01
46714;BME280;32445;51.376;10.874;2023-07-31T08:43:22;98837.78;;;20.66;54.27
46714;BME280;32445;51.376;10.874;2023-07-31T08:46:25;98844.63;;;20.80;53.50
46714;BME280;32445;51.376;10.874;2023-07-31T08:49:26;98845.25;;;20.84;53.12
46714;BME280;32445;51.376;10.874;2023-07-31T08:52:27;98838.28;;;20.83;52.94
46714;BME280;32445;51.376;10.874;2023-07-31T08:55:28;98836.50;;;20.83;52.99
46714;BME280;32445;51.376;10.874;2023-07-31T08:58:33;98831.22;;;20.83;52.87
46714;BME280;32445;51.376;10.874;2023-07-31T09:01:41;98815.84;;;20.88;52.67
46714;BME280;32445;51.376;10.874;2023-07-31T09:04:43;98823.03;;;20.98;52.25
46714;BME280;32445;51.376;10.874;2023-07-31T09:07:45;98835.59;;;21.05;52.53
46714;BME280;32445;51.376;10.874;2023-07-31T09:10:47;98826.75;;;21.06;52.57
46714;BME280;32445;51.376;10.874;2023-07-31T09:13:50;98814.59;;;21.15;52.21
46714;BME280;32445;51.376;10.874;2023-07-31T09:16:55;98841.91;;;21.25;51.70
46714;BME280;32445;51.376;10.874;2023-07-31T09:19:55;98827.63;;;21.28;51.72
46714;BME280;32445;51.376;10.874;2023-07-31T09:22:56;98804.72;;;21.29;51.73
46714;BME280;32445;51.376;10.874;2023-07-31T09:25:57;98819.47;;;21.31;51.74
46714;BME280;32445;51.376;10.874;2023-07-31T09:28:58;98813.78;;;21.36;51.35
46714;BME280;32445;51.376;10.874;2023-07-31T09:31:58;98824.34;;;21.36;51.25
46714;BME280;32445;51.376;10.874;2023-07-31T09:34:59;98813.78;;;21.36;51.29
46714;BME280;32445;51.376;10.874;2023-07-31T09:38:03;98810.34;;;21.35;51.26
46714;BME280;32445;51.376;10.874;2023-07-31T09:41:05;98834.44;;;21.42;51.39
46714;BME280;32445;51.376;10.874;2023-07-31T09:44:07;98824.31;;;21.47;51.03
46714;BME280;32445;51.376;10.874;2023-07-31T09:47:28;98813.41;;;21.40;50.97
46714;BME280;32445;51.376;10.874;2023-07-31T09:50:30;98825.41;;;21.44;51.05
46714;BME280;32445;51.376;10.874;2023-07-31T09:53:31;98811.13;;;21.47;51.04
46714;BME280;32445;51.376;10.874;2023-07-31T09:56:33;98799.47;;;21.50;50.98
46714;BME280;32445;51.376;10.874;2023-07-31T09:59:34;98811.13;;;21.47;50.90
46714;BME280;32445;51.376;10.874;2023-07-31T10:02:36;98818.34;;;21.45;51.33
46714;BME280;32445;51.376;10.874;2023-07-31T10:05:42;98810.19;;;21.37;51.24
46714;BME280;32445;51.376;10.874;2023-07-31T10:08:46;98798.91;;;21.35;51.07
46714;BME280;32445;51.376;10.874;2023-07-31T10:11:53;98798.22;;;21.33;51.29
46714;BME280;32445;51.376;10.874;2023-07-31T10:14:56;98773.38;;;21.35;51.36
46714;BME280;32445;51.376;10.874;2023-07-31T10:17:57;98773.13;;;21.38;51.18
46714;BME280;32445;51.376;10.874;2023-07-31T10:20:58;98767.31;;;21.44;50.93
46714;BME280;32445;51.376;10.874;2023-07-31T10:23:59;98760.00;;;21.48;50.96
46714;BME280;32445;51.376;10.874;2023-07-31T10:27:00;98776.09;;;21.45;50.67
46714;BME280;32445;51.376;10.874;2023-07-31T10:30:03;98749.97;;;21.42;50.46
46714;BME280;32445;51.376;10.874;2023-07-31T10:33:05;98750.19;;;21.39;50.34
46714;BME280;32445;51.376;10.874;2023-07-31T10:36:13;98752.81;;;21.39;49.77
46714;BME280;32445;51.376;10.874;2023-07-31T10:39:34;98727.66;;;21.35;49.86
46714;BME280;32445;51.376;10.874;2023-07-31T10:42:55;98731.00;;;21.37;49.88
46714;BME280;32445;51.376;10.874;2023-07-31T10:45:57;98739.88;;;21.36;49.95
46714;BME280;32445;51.376;10.874;2023-07-31T10:49:00;98725.84;;;21.35;50.24
46714;BME280;32445;51.376;10.874;2023-07-31T10:52:03;98723.78;;;21.39;50.39
46714;BME280;32445;51.376;10.874;2023-07-31T10:58:32;98721.75;;;21.42;50.44
46714;BME280;32445;51.376;10.874;2023-07-31T11:01:52;98710.47;;;21.40;50.72
46714;BME280;32445;51.376;10.874;2023-07-31T11:05:07;98720.66;;;21.45;50.80
46714;BME280;32445;51.376;10.874;2023-07-31T11:11:22;98710.53;;;21.50;50.69
46714;BME280;32445;51.376;10.874;2023-07-31T11:14:23;98714.03;;;21.51;50.45
46714;BME280;32445;51.376;10.874;2023-07-31T11:17:25;98717.53;;;21.51;50.45
46714;BME280;32445;51.376;10.874;2023-07-31T11:20:27;98734.28;;;21.50;50.40
46714;BME280;32445;51.376;10.874;2023-07-31T11:23:27;98732.97;;;21.56;50.47
46714;BME280;32445;51.376;10.874;2023-07-31T11:26:27;98734.53;;;21.58;50.43
46714;BME280;32445;51.376;10.874;2023-07-31T11:29:28;98729.94;;;21.60;50.67
46714;BME280;32445;51.376;10.874;2023-07-31T11:32:29;98748.88;;;21.66;50.77
46714;BME280;32445;51.376;10.874;2023-07-31T11:35:33;98730.47;;;21.75;50.62
46714;BME280;32445;51.376;10.874;2023-07-31T11:38:34;98722.72;;;21.84;50.84
46714;BME280;32445;51.376;10.874;2023-07-31T11:41:34;98718.44;;;21.92;50.64
46714;BME280;32445;51.376;10.874;2023-07-31T11:44:40;98729.06;;;22.02;50.27
46714;BME280;32445;51.376;10.874;2023-07-31T11:47:47;98725.75;;;22.10;49.90
46714;BME280;32445;51.376;10.874;2023-07-31T11:50:50;98732.19;;;22.17;49.60
46714;BME280;32445;51.376;10.874;2023-07-31T11:53:53;98725.81;;;22.20;49.34
46714;BME280;32445;51.376;10.874;2023-07-31T11:56:55;98710.63;;;22.22;49.45
46714;BME280;32445;51.376;10.874;2023-07-31T11:59:57;98720.94;;;22.25;49.19
46714;BME280;32445;51.376;10.874;2023-07-31T12:02:58;98718.41;;;22.23;48.75
46714;BME280;32445;51.376;10.874;2023-07-31T12:05:59;98712.31;;;22.23;48.71
46714;BME280;32445;51.376;10.874;2023-07-31T12:09:02;98712.31;;;22.23;48.88
46714;BME280;32445;51.376;10.874;2023-07-31T12:12:07;98702.56;;;22.23;48.81
46714;BME280;32445;51.376;10.874;2023-07-31T12:15:15;98713.28;;;22.22;48.67
46714;BME280;32445;51.376;10.874;2023-07-31T12:18:20;98696.44;;;22.23;48.92
46714;BME280;32445;51.376;10.874;2023-07-31T12:21:20;98714.53;;;22.27;48.94
46714;BME280;32445;51.376;10.874;2023-07-31T12:24:21;98705.53;;;22.30;48.75
46714;BME280;32445;51.376;10.874;2023-07-31T12:27:21;98692.88;;;22.34;48.47
46714;BME280;32445;51.376;10.874;2023-07-31T12:30:29;98690.53;;;22.40;48.56
46714;BME280;32445;51.376;10.874;2023-07-31T12:33:31;98688.63;;;22.42;48.30
46714;BME280;32445;51.376;10.874;2023-07-31T12:36:33;98696.03;;;22.58;48.42
46714;BME280;32445;51.376;10.874;2023-07-31T12:39:35;98701.75;;;22.83;47.99
46714;BME280;32445;51.376;10.874;2023-07-31T12:42:36;98671.84;;;23.12;47.62
46714;BME280;32445;51.376;10.874;2023-07-31T12:45:36;98659.38;;;23.42;46.88
46714;BME280;32445;51.376;10.874;2023-07-31T12:48:37;98686.25;;;23.57;45.90
46714;BME280;32445;51.376;10.874;2023-07-31T12:51:38;98663.66;;;23.53;45.31
46714;BME280;32445;51.376;10.874;2023-07-31T12:54:38;98673.44;;;23.52;45.63
46714;BME280;32445;51.376;10.874;2023-07-31T12:57:39;98675.13;;;23.53;45.69
46714;BME280;32445;51.376;10.874;2023-07-31T13:00:40;98643.47;;;23.61;45.55
46714;BME280;32445;51.376;10.874;2023-07-31T13:03:40;98668.63;;;23.75;44.97
46714;BME280;32445;51.376;10.874;2023-07-31T13:06:40;98667.78;;;23.84;44.56
46714;BME280;32445;51.376;10.874;2023-07-31T13:09:41;98664.03;;;23.87;44.74
46714;BME280;32445;51.376;10.874;2023-07-31T13:12:41;98652.69;;;23.85;44.31
46714;BME280;32445;51.376;10.874;2023-07-31T13:15:41;98648.66;;;23.91;44.90
46714;BME280;32445;51.376;10.874;2023-07-31T13:18:42;98649.38;;;23.93;44.71
46714;BME280;32445;51.376;10.874;2023-07-31T13:21:42;98643.91;;;23.94;44.49
46714;BME280;32445;51.376;10.874;2023-07-31T13:24:42;98644.47;;;23.88;44.28
46714;BME280;32445;51.376;10.874;2023-07-31T13:27:43;98649.06;;;23.86;44.48
46714;BME280;32445;51.376;10.874;2023-07-31T13:30:43;98635.41;;;23.91;44.21
46714;BME280;32445;51.376;10.874;2023-07-31T13:33:43;98629.66;;;23.95;44.40
46714;BME280;32445;51.376;10.874;2023-07-31T13:36:44;98644.41;;;24.08;44.40
46714;BME280;32445;51.376;10.874;2023-07-31T13:39:44;98652.59;;;24.14;44.06
46714;BME280;32445;51.376;10.874;2023-07-31T13:42:44;98643.50;;;24.17;43.83
46714;BME280;32445;51.376;10.874;2023-07-31T13:45:47;98627.31;;;24.20;44.01
46714;BME280;32445;51.376;10.874;2023-07-31T13:48:47;98636.69;;;24.14;44.10
46714;BME280;32445;51.376;10.874;2023-07-31T13:51:47;98630.22;;;24.17;44.10
46714;BME280;32445;51.376;10.874;2023-07-31T13:54:48;98629.66;;;24.23;43.91
46714;BME280;32445;51.376;10.874;2023-07-31T13:57:48;98630.47;;;24.24;44.00
46714;BME280;32445;51.376;10.874;2023-07-31T14:00:48;98643.34;;;24.18;43.84
46714;BME280;32445;51.376;10.874;2023-07-31T14:03:49;98645.16;;;24.18;44.22
46714;BME280;32445;51.376;10.874;2023-07-31T14:06:49;98663.34;;;24.13;44.88
46714;BME280;32445;51.376;10.874;2023-07-31T14:09:50;98642.03;;;24.05;45.05
46714;BME280;32445;51.376;10.874;2023-07-31T14:12:50;98630.38;;;23.97;45.44
46714;BME280;32445;51.376;10.874;2023-07-31T14:15:51;98633.31;;;23.94;45.48
46714;BME280;32445;51.376;10.874;2023-07-31T14:18:51;98628.97;;;23.93;45.47
46714;BME280;32445;51.376;10.874;2023-07-31T14:21:53;98628.16;;;23.93;45.93
46714;BME280;32445;51.376;10.874;2023-07-31T14:24:54;98617.41;;;23.94;45.78
46714;BME280;32445;51.376;10.874;2023-07-31T14:27:55;98618.91;;;23.97;45.80
46714;BME280;32445;51.376;10.874;2023-07-31T14:30:55;98614.34;;;23.89;46.20
46714;BME280;32445;51.376;10.874;2023-07-31T14:33:55;98617.00;;;23.89;46.12
46714;BME280;32445;51.376;10.874;2023-07-31T14:36:56;98639.34;;;23.77;46.36
46714;BME280;32445;51.376;10.874;2023-07-31T14:39:56;98616.06;;;23.71;46.25
46714;BME280;32445;51.376;10.874;2023-07-31T14:42:57;98619.28;;;23.74;46.57
46714;BME280;32445;51.376;10.874;2023-07-31T14:45:57;98622.91;;;23.73;46.15
46714;BME280;32445;51.376;10.874;2023-07-31T14:48:59;98605.78;;;23.67;45.82
46714;BME280;32445;51.376;10.874;2023-07-31T14:52:00;98604.66;;;23.70;45.68
46714;BME280;32445;51.376;10.874;2023-07-31T14:55:00;98601.31;;;23.68;45.39
46714;BME280;32445;51.376;10.874;2023-07-31T14:58:01;98599.78;;;23.65;45.63
46714;BME280;32445;51.376;10.874;2023-07-31T15:01:01;98591.41;;;23.70;45.62
46714;BME280;32445;51.376;10.874;2023-07-31T15:04:02;98589.28;;;23.74;45.58
46714;BME280;32445;51.376;10.874;2023-07-31T15:07:03;98588.84;;;23.78;45.36
46714;BME280;32445;51.376;10.874;2023-07-31T15:10:04;98592.19;;;23.80;45.07
46714;BME280;32445;51.376;10.874;2023-07-31T15:13:04;98579.78;;;23.81;45.36
46714;BME280;32445;51.376;10.874;2023-07-31T15:16:05;98580.16;;;23.86;45.34
46714;BME280;32445;51.376;10.874;2023-07-31T15:19:05;98579.59;;;23.92;45.02
46714;BME280;32445;51.376;10.874;2023-07-31T15:22:05;98584.44;;;23.97;44.92
46714;BME280;32445;51.376;10.874;2023-07-31T15:25:06;98570.22;;;23.98;44.69
46714;BME280;32445;51.376;10.874;2023-07-31T15:28:07;98561.75;;;23.94;44.61
46714;BME280;32445;51.376;10.874;2023-07-31T15:31:09;98562.91;;;23.82;45.12
46714;BME280;32445;51.376;10.874;2023-07-31T15:34:09;98566.22;;;23.84;44.87
46714;BME280;32445;51.376;10.874;2023-07-31T15:37:09;98554.13;;;23.81;44.69
46714;BME280;32445;51.376;10.874;2023-07-31T15:40:10;98574.09;;;23.76;44.74
46714;BME280;32445;51.376;10.874;2023-07-31T15:43:10;98550.97;;;23.68;45.03
46714;BME280;32445;51.376;10.874;2023-07-31T15:46:11;98561.16;;;23.73;44.97
46714;BME280;32445;51.376;10.874;2023-07-31T15:49:12;98564.22;;;23.68;44.89
46714;BME280;32445;51.376;10.874;2023-07-31T15:52:13;98581.94;;;23.67;45.05
46714;BME280;32445;51.376;10.874;2023-07-31T15:55:13;98574.28;;;23.64;45.01
46714;BME280;32445;51.376;10.874;2023-07-31T15:58:14;98561.75;;;23.57;45.04